createdAt,value
2022-10-08T00:00:09.696Z,17.34
2022-10-08T00:02:38.739Z,17.29
2022-10-08T00:05:08.198Z,17.31
2022-10-08T00:07:37.728Z,17.29
2022-10-08T00:10:09.477Z,17.28
2022-10-08T00:12:37.732Z,17.27
2022-10-08T00:15:07.012Z,17.30
2022-10-08T00:17:35.798Z,17.27
2022-10-08T00:20:04.352Z,17.27
2022-10-08T00:22:32.712Z,17.24
2022-10-08T00:25:02.709Z,17.24
2022-10-08T00:27:31.068Z,17.23
2022-10-08T00:29:59.265Z,17.22
2022-10-08T00:32:27.498Z,17.21
2022-10-08T00:34:55.553Z,17.18
2022-10-08T00:37:26.324Z,17.19
2022-10-08T00:39:54.414Z,17.18
2022-10-08T00:42:24.898Z,17.16
2022-10-08T00:44:59.013Z,17.15
2022-10-08T00:47:36.423Z,17.13
2022-10-08T00:50:06.779Z,17.06
2022-10-08T00:52:37.403Z,17.11
2022-10-08T00:55:07.116Z,17.10
2022-10-08T00:57:36.802Z,17.15
2022-10-08T01:00:06.192Z,17.15
2022-10-08T01:02:34.488Z,17.21
2022-10-08T01:05:02.782Z,17.27
2022-10-08T01:07:32.595Z,17.34
2022-10-08T01:10:03.725Z,17.43
2022-10-08T01:12:41.799Z,17.49
2022-10-08T01:15:13.263Z,17.50
2022-10-08T01:17:47.901Z,17.53
2022-10-08T01:20:42.125Z,17.53
2022-10-08T01:23:35.491Z,17.57
2022-10-08T01:26:09.842Z,17.53
2022-10-08T01:28:42.157Z,17.50
2022-10-08T01:31:11.715Z,17.45
2022-10-08T01:33:42.918Z,17.50
2022-10-08T01:36:11.432Z,17.48
2022-10-08T01:38:41.307Z,17.49
2022-10-08T01:41:10.586Z,17.48
2022-10-08T01:43:42.027Z,17.45
2022-10-08T01:46:11.982Z,17.41
2022-10-08T01:48:40.472Z,17.34
2022-10-08T01:51:10.238Z,17.24
2022-10-08T01:53:39.479Z,17.24
2022-10-08T01:56:07.791Z,17.18
2022-10-08T01:58:37.770Z,17.14
2022-10-08T02:01:12.295Z,17.11
2022-10-08T02:04:00.232Z,17.05
2022-10-08T02:06:28.273Z,17.01
2022-10-08T02:08:56.161Z,16.98
2022-10-08T02:11:24.143Z,16.96
2022-10-08T02:13:52.030Z,16.94
2022-10-08T02:16:24.479Z,16.92
2022-10-08T02:18:55.332Z,16.85
2022-10-08T02:21:24.996Z,16.89
2022-10-08T02:23:55.576Z,16.84
2022-10-08T02:26:25.605Z,16.85
2022-10-08T02:28:57.049Z,16.83
2022-10-08T02:31:29.303Z,16.78
2022-10-08T02:33:59.028Z,16.79
2022-10-08T02:36:28.643Z,16.76
2022-10-08T02:38:57.632Z,16.72
2022-10-08T02:41:27.328Z,16.69
2022-10-08T02:43:55.833Z,16.67
2022-10-08T02:46:25.031Z,16.66
2022-10-08T02:48:57.402Z,16.64
2022-10-08T02:51:25.255Z,16.63
2022-10-08T02:53:53.149Z,16.62
2022-10-08T02:56:22.836Z,16.62
2022-10-08T02:58:50.735Z,16.62
2022-10-08T03:01:24.321Z,16.62
2022-10-08T03:03:55.198Z,16.64
2022-10-08T03:06:23.065Z,16.70
2022-10-08T03:08:50.958Z,16.77
2022-10-08T03:11:18.873Z,16.79
2022-10-08T03:13:48.040Z,16.77
2022-10-08T03:16:17.152Z,16.77
2022-10-08T03:18:45.040Z,16.73
2022-10-08T03:21:14.595Z,16.70
2022-10-08T03:23:42.683Z,16.71
2022-10-08T03:26:10.545Z,16.73
2022-10-08T03:28:38.496Z,16.75
2022-10-08T03:31:06.826Z,16.77
2022-10-08T03:33:34.876Z,16.75
2022-10-08T03:36:02.784Z,16.72
2022-10-08T03:38:32.645Z,16.70
2022-10-08T03:41:00.630Z,16.68
2022-10-08T03:43:32.568Z,16.70
2022-10-08T03:46:00.504Z,16.72
2022-10-08T03:48:28.485Z,16.72
2022-10-08T03:50:57.545Z,16.70
2022-10-08T03:53:25.680Z,16.72
2022-10-08T03:55:54.933Z,16.75
2022-10-08T03:58:22.784Z,16.78
2022-10-08T04:00:58.321Z,16.80
2022-10-08T04:03:26.301Z,16.79
2022-10-08T04:05:54.261Z,16.79
2022-10-08T04:08:22.192Z,16.79
2022-10-08T04:10:50.161Z,16.78
2022-10-08T04:13:19.449Z,16.74
2022-10-08T04:15:48.477Z,16.70
2022-10-08T04:18:16.372Z,16.65
2022-10-08T04:20:44.473Z,16.60
2022-10-08T04:23:12.459Z,16.62
2022-10-08T04:25:40.348Z,16.62
2022-10-08T04:28:08.302Z,16.61
2022-10-08T04:30:37.697Z,16.61
2022-10-08T04:33:05.652Z,16.60
2022-10-08T04:35:33.573Z,16.59
2022-10-08T04:38:01.459Z,16.56
2022-10-08T04:40:29.336Z,16.56
2022-10-08T04:42:57.192Z,16.52
2022-10-08T04:45:25.081Z,16.52
2022-10-08T04:47:54.355Z,16.51
2022-10-08T04:50:22.234Z,16.47
2022-10-08T04:52:50.226Z,16.49
2022-10-08T04:55:18.112Z,16.19
2022-10-08T04:57:45.970Z,16.44
2022-10-08T05:00:18.104Z,16.43
2022-10-08T05:02:47.183Z,16.44
2022-10-08T05:05:16.722Z,16.44
2022-10-08T05:07:44.589Z,16.43
2022-10-08T05:10:12.686Z,16.38
2022-10-08T05:12:40.671Z,16.33
2022-10-08T05:15:10.016Z,16.33
2022-10-08T05:17:37.949Z,16.29
2022-10-08T05:20:06.958Z,16.18
2022-10-08T05:22:36.242Z,16.23
2022-10-08T05:25:04.099Z,16.17
2022-10-08T05:27:32.283Z,16.19
2022-10-08T05:30:00.185Z,16.15
2022-10-08T05:32:28.037Z,16.12
2022-10-08T05:34:55.996Z,16.11
2022-10-08T05:37:23.900Z,16.09
2022-10-08T05:39:53.177Z,16.06
2022-10-08T05:42:21.062Z,16.06
2022-10-08T05:44:48.919Z,16.06
2022-10-08T05:47:16.862Z,16.03
2022-10-08T05:49:44.732Z,16.02
2022-10-08T05:52:12.640Z,15.99
2022-10-08T05:54:40.530Z,15.99
2022-10-08T05:57:09.956Z,15.98
2022-10-08T05:59:37.911Z,15.95
2022-10-08T06:02:05.904Z,15.94
2022-10-08T06:04:33.913Z,15.92
2022-10-08T06:07:02.146Z,15.91
2022-10-08T06:09:30.111Z,15.91
2022-10-08T06:11:58.066Z,15.92
2022-10-08T06:14:27.772Z,15.95
2022-10-08T06:16:55.726Z,15.92
2022-10-08T06:19:23.589Z,15.90
2022-10-08T06:21:51.537Z,15.86
2022-10-08T06:24:19.617Z,15.78
2022-10-08T06:26:47.545Z,15.70
2022-10-08T06:29:16.940Z,15.60
2022-10-08T06:31:46.827Z,15.50
2022-10-08T06:34:14.755Z,15.40
2022-10-08T06:36:42.937Z,15.33
2022-10-08T06:39:11.988Z,15.31
2022-10-08T06:41:39.837Z,15.28
2022-10-08T06:44:09.203Z,15.22
2022-10-08T06:46:37.145Z,15.21
2022-10-08T06:49:06.644Z,15.28
2022-10-08T06:51:34.597Z,15.31
2022-10-08T06:54:07.458Z,15.38
2022-10-08T06:56:36.724Z,15.47
2022-10-08T06:59:04.905Z,15.27
2022-10-08T07:01:34.324Z,15.66
2022-10-08T07:04:02.458Z,15.73
2022-10-08T07:06:32.211Z,15.77
2022-10-08T07:09:01.192Z,15.78
2022-10-08T07:11:33.708Z,15.79
2022-10-08T07:14:01.744Z,15.79
2022-10-08T07:16:29.715Z,15.67
2022-10-08T07:18:58.620Z,15.81
2022-10-08T07:21:26.936Z,15.81
2022-10-08T07:24:20.995Z,15.84
2022-10-08T07:26:51.697Z,15.82
2022-10-08T07:29:19.627Z,15.88
2022-10-08T07:31:47.639Z,15.85
2022-10-08T07:34:15.569Z,15.89
2022-10-08T07:36:43.568Z,15.89
2022-10-08T07:39:14.713Z,15.93
2022-10-08T07:41:43.091Z,15.96
2022-10-08T07:44:12.132Z,15.99
2022-10-08T07:46:43.651Z,16.02
2022-10-08T07:49:11.567Z,16.05
2022-10-08T07:51:39.544Z,16.13
2022-10-08T07:54:08.480Z,16.06
2022-10-08T07:56:37.781Z,16.14
2022-10-08T07:59:08.441Z,16.31
2022-10-08T08:01:36.357Z,16.38
2022-10-08T08:04:05.342Z,16.45
2022-10-08T08:06:34.886Z,16.51
2022-10-08T08:09:02.804Z,16.49
2022-10-08T08:11:30.778Z,16.59
2022-10-08T08:14:00.139Z,16.60
2022-10-08T08:16:29.355Z,16.74
2022-10-08T08:18:58.262Z,16.81
2022-10-08T08:21:28.275Z,16.74
2022-10-08T08:23:57.402Z,16.92
2022-10-08T08:26:26.574Z,16.94
2022-10-08T08:28:55.475Z,17.00
2022-10-08T08:31:26.025Z,17.08
2022-10-08T08:33:55.190Z,17.14
2022-10-08T08:36:25.407Z,17.23
2022-10-08T08:38:53.333Z,17.30
2022-10-08T08:41:34.726Z,17.39
2022-10-08T08:44:03.801Z,17.43
2022-10-08T08:46:33.856Z,17.52
2022-10-08T08:49:03.719Z,17.56
2022-10-08T08:51:32.534Z,17.73
2022-10-08T08:54:00.635Z,17.78
2022-10-08T08:56:29.584Z,17.85
2022-10-08T08:59:06.941Z,17.83
2022-10-08T09:01:37.865Z,17.95
2022-10-08T09:04:07.830Z,18.06
2022-10-08T09:06:35.801Z,18.17
2022-10-08T09:09:06.997Z,18.31
2022-10-08T09:11:37.768Z,18.32
2022-10-08T09:14:14.710Z,18.62
2022-10-08T09:16:44.193Z,18.69
2022-10-08T09:19:12.270Z,18.69
2022-10-08T09:21:40.241Z,18.81
2022-10-08T09:24:08.152Z,18.87
2022-10-08T09:26:36.493Z,18.92
2022-10-08T09:29:04.835Z,18.97
2022-10-08T09:31:33.829Z,19.06
2022-10-08T09:34:06.472Z,19.21
2022-10-08T09:36:36.417Z,19.32
2022-10-08T09:39:06.065Z,19.67
2022-10-08T09:41:34.208Z,19.90
2022-10-08T09:44:14.004Z,20.06
2022-10-08T09:46:41.977Z,20.23
2022-10-08T09:49:32.170Z,20.43
2022-10-08T09:52:03.419Z,20.52
2022-10-08T09:54:32.347Z,20.67
2022-10-08T09:57:01.014Z,20.77
2022-10-08T10:02:40.129Z,21.03
2022-10-08T10:05:20.674Z,21.14
2022-10-08T10:07:48.546Z,21.21
2022-10-08T10:10:18.820Z,21.27
2022-10-08T10:12:49.628Z,21.26
2022-10-08T10:15:19.949Z,21.27
2022-10-08T10:17:51.196Z,21.28
2022-10-08T10:20:26.447Z,21.45
2022-10-08T10:22:57.278Z,21.65
2022-10-08T10:25:30.878Z,21.88
2022-10-08T10:28:00.768Z,22.10
2022-10-08T10:30:29.751Z,22.26
2022-10-08T10:32:59.589Z,22.33
2022-10-08T10:35:29.597Z,22.34
2022-10-08T10:38:00.836Z,22.33
2022-10-08T10:40:33.199Z,22.14
2022-10-08T10:43:45.654Z,22.17
2022-10-08T10:46:25.538Z,22.00
2022-10-08T10:48:53.633Z,21.86
2022-10-08T10:51:41.299Z,21.79
2022-10-08T10:54:37.699Z,21.77
2022-10-08T10:57:36.362Z,21.79
2022-10-08T11:00:06.294Z,21.56
2022-10-08T11:02:36.588Z,21.80
2022-10-08T11:05:07.977Z,21.55
2022-10-08T11:08:02.398Z,21.37
2022-10-08T11:10:37.691Z,21.71
2022-10-08T11:13:12.073Z,22.00
2022-10-08T11:15:42.585Z,22.11
2022-10-08T11:18:21.937Z,21.80
2022-10-08T11:21:01.750Z,21.94
2022-10-08T11:23:39.524Z,22.12
2022-10-08T11:26:21.838Z,22.54
2022-10-08T11:28:53.040Z,23.08
2022-10-08T11:31:26.090Z,23.60
2022-10-08T11:33:55.062Z,24.02
2022-10-08T11:36:30.512Z,24.33
2022-10-08T11:39:07.787Z,24.49
2022-10-08T11:41:39.171Z,24.79
2022-10-08T11:44:08.845Z,25.42
2022-10-08T11:46:36.959Z,25.87
2022-10-08T11:49:05.299Z,26.32
2022-10-08T11:51:40.239Z,26.64
2022-10-08T11:54:15.477Z,26.84
2022-10-08T11:56:45.021Z,26.95
2022-10-08T11:59:37.311Z,27.02
2022-10-08T12:02:21.653Z,26.99
2022-10-08T12:04:50.105Z,27.25
2022-10-08T12:07:24.697Z,27.35
2022-10-08T12:10:10.766Z,27.31
2022-10-08T12:13:03.299Z,26.80
2022-10-08T12:15:50.862Z,26.74
2022-10-08T12:19:10.561Z,26.68
2022-10-08T12:21:56.421Z,26.70
2022-10-08T12:24:57.762Z,26.91
2022-10-08T12:27:34.654Z,27.20
2022-10-08T12:30:04.275Z,27.42
2022-10-08T12:32:32.872Z,27.68
2022-10-08T12:35:01.718Z,27.99
2022-10-08T12:37:45.865Z,27.98
2022-10-08T12:40:21.161Z,27.98
2022-10-08T12:42:50.736Z,27.99
2022-10-08T12:45:21.953Z,27.80
2022-10-08T12:47:51.288Z,28.09
2022-10-08T12:50:40.217Z,28.12
2022-10-08T12:53:08.628Z,28.00
2022-10-08T12:55:39.165Z,28.13
2022-10-08T12:58:08.646Z,28.43
2022-10-08T13:00:37.186Z,28.61
2022-10-08T13:03:05.975Z,28.73
2022-10-08T13:05:34.866Z,28.97
2022-10-08T13:08:30.858Z,29.02
2022-10-08T13:10:59.288Z,29.05
2022-10-08T13:13:36.691Z,29.26
2022-10-08T13:16:06.005Z,29.38
2022-10-08T13:18:34.392Z,29.63
2022-10-08T13:21:03.160Z,29.86
2022-10-08T13:23:35.251Z,29.92
2022-10-08T13:26:03.184Z,29.87
2022-10-08T13:28:59.294Z,29.89
2022-10-08T13:31:25.353Z,29.86
2022-10-08T13:33:53.272Z,29.97
2022-10-08T13:36:22.753Z,30.25
2022-10-08T13:38:53.678Z,30.39
2022-10-08T13:41:23.807Z,30.45
2022-10-08T13:43:51.930Z,30.53
2022-10-08T13:46:19.861Z,30.53
2022-10-08T13:48:49.198Z,30.52
2022-10-08T13:51:17.084Z,30.44
2022-10-08T13:53:45.773Z,30.36
2022-10-08T13:56:13.846Z,30.27
2022-10-08T13:58:41.713Z,30.19
2022-10-08T14:01:09.680Z,30.24
2022-10-08T14:03:37.740Z,30.44
2022-10-08T14:06:07.500Z,30.52
2022-10-08T14:08:36.080Z,30.48
2022-10-08T14:11:04.110Z,30.51
2022-10-08T14:13:32.026Z,30.54
2022-10-08T14:15:59.926Z,30.67
2022-10-08T14:18:39.195Z,30.69
2022-10-08T14:21:08.670Z,30.50
2022-10-08T14:23:36.618Z,30.54
2022-10-08T14:26:04.580Z,30.67
2022-10-08T14:28:33.277Z,30.76
2022-10-08T14:31:01.450Z,30.86
2022-10-08T14:33:29.462Z,30.85
2022-10-08T14:35:57.372Z,30.96
2022-10-08T14:38:26.634Z,30.94
2022-10-08T14:40:54.612Z,30.97
2022-10-08T14:43:25.650Z,30.88
2022-10-08T14:45:55.488Z,30.79
2022-10-08T14:48:23.573Z,30.65
2022-10-08T14:50:51.453Z,30.44
2022-10-08T14:53:19.368Z,30.27
2022-10-08T14:56:10.962Z,30.15
2022-10-08T14:58:37.381Z,30.11
2022-10-08T15:01:05.363Z,29.97
2022-10-08T15:03:33.479Z,29.98
2022-10-08T15:06:01.471Z,30.00
2022-10-08T15:08:29.441Z,29.96
2022-10-08T15:10:58.738Z,29.96
2022-10-08T15:13:26.573Z,29.77
2022-10-08T15:15:54.837Z,29.64
2022-10-08T15:18:22.991Z,29.52
2022-10-08T15:20:55.590Z,29.17
2022-10-08T15:23:23.821Z,28.93
2022-10-08T15:26:25.212Z,28.64
2022-10-08T15:29:06.250Z,27.78
2022-10-08T15:31:34.152Z,27.62
2022-10-08T15:34:02.141Z,27.03
2022-10-08T15:36:30.877Z,26.42
2022-10-08T15:38:59.470Z,25.71
2022-10-08T15:41:29.757Z,25.14
2022-10-08T15:43:57.749Z,24.60
2022-10-08T15:46:28.971Z,24.30
2022-10-08T15:48:57.580Z,23.94
2022-10-08T15:51:26.299Z,23.69
2022-10-08T15:53:54.389Z,23.49
2022-10-08T15:56:22.654Z,23.28
2022-10-08T15:58:52.137Z,23.04
2022-10-08T16:01:21.211Z,22.91
2022-10-08T16:03:50.229Z,22.82
2022-10-08T16:06:19.041Z,22.76
2022-10-08T16:08:46.971Z,22.66
2022-10-08T16:11:15.437Z,22.63
2022-10-08T16:13:43.720Z,22.59
2022-10-08T16:16:15.346Z,22.52
2022-10-08T16:18:43.587Z,22.26
2022-10-08T16:21:11.737Z,22.35
2022-10-08T16:23:39.850Z,22.12
2022-10-08T16:26:08.987Z,22.13
2022-10-08T16:28:38.125Z,22.11
2022-10-08T16:31:08.808Z,22.01
2022-10-08T16:33:38.126Z,21.88
2022-10-08T16:36:07.327Z,21.83
2022-10-08T16:38:35.564Z,21.67
2022-10-08T16:41:13.970Z,21.67
2022-10-08T16:43:42.039Z,21.60
2022-10-08T16:46:17.062Z,21.49
2022-10-08T16:48:46.486Z,21.39
2022-10-08T16:51:14.375Z,21.32
2022-10-08T16:53:42.301Z,21.23
2022-10-08T16:56:10.619Z,21.12
2022-10-08T16:58:38.554Z,21.04
2022-10-08T17:01:08.376Z,20.86
2022-10-08T17:03:36.514Z,20.86
2022-10-08T17:06:06.680Z,20.76
2022-10-08T17:08:34.557Z,20.73
2022-10-08T17:11:05.312Z,20.71
2022-10-08T17:13:33.282Z,20.64
2022-10-08T17:16:01.689Z,20.59
2022-10-08T17:18:29.856Z,20.53
2022-10-08T17:20:58.196Z,20.43
2022-10-08T17:23:27.986Z,20.38
2022-10-08T17:25:56.881Z,20.35
2022-10-08T17:28:28.255Z,20.29
2022-10-08T17:30:58.107Z,20.21
2022-10-08T17:33:26.073Z,20.12
2022-10-08T17:36:00.906Z,20.04
2022-10-08T17:38:30.367Z,19.93
2022-10-08T17:40:58.342Z,19.82
2022-10-08T17:43:26.406Z,19.69
2022-10-08T17:45:54.401Z,19.59
2022-10-08T17:48:22.421Z,19.51
2022-10-08T17:50:50.281Z,19.41
2022-10-08T17:53:18.142Z,19.31
2022-10-08T17:55:47.565Z,19.08
2022-10-08T17:58:15.468Z,19.09
2022-10-08T18:00:43.351Z,19.00
2022-10-08T18:03:11.461Z,18.93
2022-10-08T18:05:39.480Z,18.86
2022-10-08T18:08:07.496Z,18.68
2022-10-08T18:10:38.154Z,18.67
2022-10-08T18:13:07.461Z,18.60
2022-10-08T18:15:37.672Z,18.48
2022-10-08T18:18:05.615Z,18.37
2022-10-08T18:20:33.512Z,18.27
2022-10-08T18:23:01.453Z,18.23
2022-10-08T18:25:29.452Z,18.19
2022-10-08T18:27:57.429Z,18.13
2022-10-08T18:30:27.071Z,18.11
2022-10-08T18:32:56.936Z,18.07
2022-10-08T18:35:25.645Z,18.04
2022-10-08T18:37:53.717Z,17.99
2022-10-08T18:40:21.695Z,17.94
2022-10-08T18:42:49.824Z,17.84
2022-10-08T18:45:18.111Z,17.92
2022-10-08T18:47:47.384Z,17.85
2022-10-08T18:50:15.758Z,17.77
2022-10-08T18:52:43.787Z,17.58
2022-10-08T18:55:11.665Z,17.57
2022-10-08T18:57:39.593Z,17.46
2022-10-08T19:00:08.695Z,17.36
2022-10-08T19:02:36.909Z,17.27
2022-10-08T19:05:07.414Z,17.26
2022-10-08T19:07:35.381Z,17.20
2022-10-08T19:10:03.374Z,16.80
2022-10-08T19:12:31.400Z,17.08
2022-10-08T19:14:59.478Z,17.01
2022-10-08T19:17:27.368Z,16.95
2022-10-08T19:19:55.272Z,16.88
2022-10-08T19:22:24.578Z,16.82
2022-10-08T19:24:52.779Z,16.76
2022-10-08T19:27:20.761Z,16.69
2022-10-08T19:29:48.680Z,16.64
2022-10-08T19:32:16.665Z,16.53
2022-10-08T19:34:44.496Z,16.53
2022-10-08T19:37:12.377Z,16.51
2022-10-08T19:39:44.161Z,16.49
2022-10-08T19:42:12.345Z,16.48
2022-10-08T19:44:40.272Z,16.44
2022-10-08T19:47:08.292Z,16.44
2022-10-08T19:49:36.186Z,16.40
2022-10-08T19:52:04.033Z,16.37
2022-10-08T19:54:31.949Z,16.33
2022-10-08T19:57:01.204Z,16.28
2022-10-08T19:59:29.096Z,16.21
2022-10-08T20:01:57.045Z,16.14
2022-10-08T20:04:24.975Z,16.08
2022-10-08T20:06:52.912Z,16.05
2022-10-08T20:09:21.206Z,16.03
2022-10-08T20:11:49.358Z,16.05
2022-10-08T20:14:18.836Z,16.06
2022-10-08T20:16:46.699Z,16.09
2022-10-08T20:19:16.671Z,16.11
2022-10-08T20:21:44.729Z,16.11
2022-10-08T20:24:12.832Z,16.08
2022-10-08T20:26:41.685Z,16.06
2022-10-08T20:29:10.313Z,16.02
2022-10-08T20:31:40.643Z,16.00
2022-10-08T20:34:09.529Z,15.98
2022-10-08T20:36:37.555Z,15.94
2022-10-08T20:39:05.779Z,15.95
2022-10-08T20:41:33.917Z,15.82
2022-10-08T20:44:03.033Z,15.88
2022-10-08T20:46:32.595Z,15.76
2022-10-08T20:49:01.926Z,15.79
2022-10-08T20:51:30.475Z,15.77
2022-10-08T20:53:59.607Z,15.73
2022-10-08T20:56:27.812Z,15.67
2022-10-08T20:58:55.719Z,15.64
2022-10-08T21:01:24.613Z,15.60
2022-10-08T21:03:52.652Z,15.59
2022-10-08T21:06:23.117Z,15.55
2022-10-08T21:08:51.684Z,15.49
2022-10-08T21:11:20.777Z,15.13
2022-10-08T21:13:48.768Z,15.38
2022-10-08T21:16:17.999Z,15.34
2022-10-08T21:18:46.084Z,15.26
2022-10-08T21:21:14.892Z,15.24
2022-10-08T21:23:44.721Z,15.17
2022-10-08T21:26:14.603Z,15.08
2022-10-08T21:28:43.168Z,15.06
2022-10-08T21:31:11.537Z,15.00
2022-10-08T21:33:39.921Z,14.99
2022-10-08T21:36:09.042Z,14.98
2022-10-08T21:38:36.932Z,14.97
2022-10-08T21:41:12.120Z,14.92
2022-10-08T21:43:41.678Z,14.88
2022-10-08T21:46:16.112Z,14.89
2022-10-08T21:48:45.878Z,14.87
2022-10-08T21:51:14.970Z,14.77
2022-10-08T21:53:49.776Z,14.77
2022-10-08T21:56:19.988Z,14.74
2022-10-08T21:58:49.100Z,14.67
2022-10-08T22:01:22.052Z,14.65
2022-10-08T22:03:50.172Z,14.61
2022-10-08T22:06:18.094Z,14.60
2022-10-08T22:08:45.982Z,14.58
2022-10-08T22:11:13.840Z,14.55
2022-10-08T22:13:43.111Z,14.50
2022-10-08T22:16:12.103Z,14.47
2022-10-08T22:18:40.065Z,14.38
2022-10-08T22:21:09.660Z,14.40
2022-10-08T22:23:37.546Z,14.37
2022-10-08T22:26:06.568Z,14.38
2022-10-08T22:28:34.556Z,14.36
2022-10-08T22:31:04.587Z,14.34
2022-10-08T22:33:32.541Z,14.32
2022-10-08T22:36:03.449Z,14.31
2022-10-08T22:38:32.141Z,14.29
2022-10-08T22:41:03.679Z,14.28
2022-10-08T22:43:31.573Z,14.23
2022-10-08T22:46:04.040Z,14.22
2022-10-08T22:48:31.973Z,14.17
2022-10-08T22:51:02.477Z,14.16
2022-10-08T22:53:30.450Z,14.14
2022-10-08T22:55:58.305Z,14.13
2022-10-08T22:58:26.239Z,14.12
2022-10-08T23:01:00.877Z,14.11
2022-10-08T23:03:30.257Z,14.07
2022-10-08T23:06:02.566Z,14.08
2022-10-08T23:08:30.505Z,14.06
2022-10-08T23:10:58.412Z,14.05
2022-10-08T23:13:26.320Z,14.05
2022-10-08T23:16:00.137Z,14.03
2022-10-08T23:18:27.977Z,14.01
2022-10-08T23:20:57.278Z,14.02
2022-10-08T23:23:25.137Z,14.00
2022-10-08T23:25:56.793Z,14.00
2022-10-08T23:28:24.753Z,13.96
2022-10-08T23:30:52.658Z,13.96
2022-10-08T23:33:20.561Z,13.96
2022-10-08T23:35:54.876Z,13.94
2022-10-08T23:38:24.144Z,13.88
2022-10-08T23:40:52.055Z,13.86
2022-10-08T23:43:19.959Z,13.74
2022-10-08T23:45:47.902Z,13.77
2022-10-08T23:48:15.799Z,13.73
2022-10-08T23:50:43.691Z,13.72
2022-10-08T23:53:11.602Z,13.71
2022-10-08T23:55:40.868Z,13.70
2022-10-08T23:58:08.700Z,13.68
